sensor_id;sensor_type;location;lat;lon;timestamp;temperature;humidity
23207;DHT22;11773;52.570;13.052;2023-01-25T00:00:42;4.30;99.90
23207;DHT22;11773;52.570;13.052;2023-01-25T00:03:11;4.40;99.90
23207;DHT22;11773;52.570;13.052;2023-01-25T00:05:41;4.20;99.90
23207;DHT22;11773;52.570;13.052;2023-01-25T00:08:10;4.00;99.90
23207;DHT22;11773;52.570;13.052;2023-01-25T00:10:40;4.20;99.90
23207;DHT22;11773;52.570;13.052;2023-01-25T00:13:10;4.20;99.90
23207;DHT22;11773;52.570;13.052;2023-01-25T00:15:39;4.30;99.90
23207;DHT22;11773;52.570;13.052;2023-01-25T00:18:09;4.40;99.90
23207;DHT22;11773;52.570;13.052;2023-01-25T00:20:38;4.40;99.90
23207;DHT22;11773;52.570;13.052;2023-01-25T00:23:07;4.20;99.90
23207;DHT22;11773;52.570;13.052;2023-01-25T00:25:37;4.10;99.90
23207;DHT22;11773;52.570;13.052;2023-01-25T00:28:06;4.30;99.90
23207;DHT22;11773;52.570;13.052;2023-01-25T00:30:36;4.40;99.90
23207;DHT22;11773;52.570;13.052;2023-01-25T00:35:48;4.50;99.90
23207;DHT22;11773;52.570;13.052;2023-01-25T00:38:39;4.50;99.90
23207;DHT22;11773;52.570;13.052;2023-01-25T00:40:58;4.60;99.90
23207;DHT22;11773;52.570;13.052;2023-01-25T00:43:28;4.40;99.90
23207;DHT22;11773;52.570;13.052;2023-01-25T00:46:00;4.30;99.90
23207;DHT22;11773;52.570;13.052;2023-01-25T00:48:30;4.30;99.90
23207;DHT22;11773;52.570;13.052;2023-01-25T00:51:00;4.30;99.90
23207;DHT22;11773;52.570;13.052;2023-01-25T00:53:30;4.40;99.90
23207;DHT22;11773;52.570;13.052;2023-01-25T00:55:59;4.50;99.90
23207;DHT22;11773;52.570;13.052;2023-01-25T00:58:29;4.40;99.90
23207;DHT22;11773;52.570;13.052;2023-01-25T01:00:59;4.30;99.90
23207;DHT22;11773;52.570;13.052;2023-01-25T01:03:28;4.40;99.90
23207;DHT22;11773;52.570;13.052;2023-01-25T01:06:08;4.40;99.90
23207;DHT22;11773;52.570;13.052;2023-01-25T01:08:35;4.40;99.90
23207;DHT22;11773;52.570;13.052;2023-01-25T01:11:10;4.50;99.90
23207;DHT22;11773;52.570;13.052;2023-01-25T01:13:40;4.20;99.90
23207;DHT22;11773;52.570;13.052;2023-01-25T01:16:11;4.30;99.90
23207;DHT22;11773;52.570;13.052;2023-01-25T01:18:43;4.30;99.90
23207;DHT22;11773;52.570;13.052;2023-01-25T01:21:13;4.30;99.90
23207;DHT22;11773;52.570;13.052;2023-01-25T01:23:43;4.30;99.90
23207;DHT22;11773;52.570;13.052;2023-01-25T01:26:14;4.40;99.90
23207;DHT22;11773;52.570;13.052;2023-01-25T01:28:48;4.30;99.90
23207;DHT22;11773;52.570;13.052;2023-01-25T01:31:19;4.30;99.90
23207;DHT22;11773;52.570;13.052;2023-01-25T01:33:55;4.40;99.90
23207;DHT22;11773;52.570;13.052;2023-01-25T01:36:27;4.30;99.90
23207;DHT22;11773;52.570;13.052;2023-01-25T01:38:58;4.40;99.90
23207;DHT22;11773;52.570;13.052;2023-01-25T01:41:28;4.30;99.90
23207;DHT22;11773;52.570;13.052;2023-01-25T01:43:57;4.40;99.90
23207;DHT22;11773;52.570;13.052;2023-01-25T01:46:35;4.40;99.90
23207;DHT22;11773;52.570;13.052;2023-01-25T01:49:21;4.50;99.90
23207;DHT22;11773;52.570;13.052;2023-01-25T01:52:04;4.40;99.90
23207;DHT22;11773;52.570;13.052;2023-01-25T01:54:37;4.50;99.90
23207;DHT22;11773;52.570;13.052;2023-01-25T01:57:17;4.40;99.90
23207;DHT22;11773;52.570;13.052;2023-01-25T01:59:57;4.40;99.90
23207;DHT22;11773;52.570;13.052;2023-01-25T02:02:28;4.40;99.90
23207;DHT22;11773;52.570;13.052;2023-01-25T02:05:00;4.50;99.90
23207;DHT22;11773;52.570;13.052;2023-01-25T02:07:35;4.40;99.90
23207;DHT22;11773;52.570;13.052;2023-01-25T02:10:08;4.40;99.90
23207;DHT22;11773;52.570;13.052;2023-01-25T02:12:40;4.40;99.90
23207;DHT22;11773;52.570;13.052;2023-01-25T02:15:12;4.40;99.90
23207;DHT22;11773;52.570;13.052;2023-01-25T02:17:42;4.40;99.90
23207;DHT22;11773;52.570;13.052;2023-01-25T02:20:25;4.40;99.90
23207;DHT22;11773;52.570;13.052;2023-01-25T02:23:23;4.40;99.90
23207;DHT22;11773;52.570;13.052;2023-01-25T02:26:00;4.20;99.90
23207;DHT22;11773;52.570;13.052;2023-01-25T02:28:53;4.20;99.90
23207;DHT22;11773;52.570;13.052;2023-01-25T02:31:18;4.20;99.90
23207;DHT22;11773;52.570;13.052;2023-01-25T02:33:48;4.30;99.90
23207;DHT22;11773;52.570;13.052;2023-01-25T02:36:29;4.40;99.90
23207;DHT22;11773;52.570;13.052;2023-01-25T02:39:08;4.30;99.90
23207;DHT22;11773;52.570;13.052;2023-01-25T02:41:37;4.20;99.90
23207;DHT22;11773;52.570;13.052;2023-01-25T02:44:17;4.40;99.90
23207;DHT22;11773;52.570;13.052;2023-01-25T02:46:48;4.30;99.90
23207;DHT22;11773;52.570;13.052;2023-01-25T02:49:18;4.00;99.90
23207;DHT22;11773;52.570;13.052;2023-01-25T02:51:50;4.10;99.90
23207;DHT22;11773;52.570;13.052;2023-01-25T02:54:24;4.10;99.90
23207;DHT22;11773;52.570;13.052;2023-01-25T02:56:55;4.20;99.90
23207;DHT22;11773;52.570;13.052;2023-01-25T02:59:24;4.30;99.90
23207;DHT22;11773;52.570;13.052;2023-01-25T03:01:54;4.40;99.90
23207;DHT22;11773;52.570;13.052;2023-01-25T03:04:23;4.50;99.90
23207;DHT22;11773;52.570;13.052;2023-01-25T03:06:53;4.20;99.90
23207;DHT22;11773;52.570;13.052;2023-01-25T03:09:23;4.20;99.90
23207;DHT22;11773;52.570;13.052;2023-01-25T03:11:52;4.30;99.90
23207;DHT22;11773;52.570;13.052;2023-01-25T03:14:21;4.30;99.90
23207;DHT22;11773;52.570;13.052;2023-01-25T03:16:51;4.30;99.90
23207;DHT22;11773;52.570;13.052;2023-01-25T03:19:20;3.90;99.90
23207;DHT22;11773;52.570;13.052;2023-01-25T03:21:50;4.00;99.90
23207;DHT22;11773;52.570;13.052;2023-01-25T03:24:19;4.20;99.90
23207;DHT22;11773;52.570;13.052;2023-01-25T03:26:49;4.20;99.90
23207;DHT22;11773;52.570;13.052;2023-01-25T03:29:37;4.20;99.90
23207;DHT22;11773;52.570;13.052;2023-01-25T03:32:07;4.20;99.90
23207;DHT22;11773;52.570;13.052;2023-01-25T03:34:37;4.30;99.90
23207;DHT22;11773;52.570;13.052;2023-01-25T03:37:06;4.40;99.90
23207;DHT22;11773;52.570;13.052;2023-01-25T03:39:36;4.40;99.90
23207;DHT22;11773;52.570;13.052;2023-01-25T03:42:06;4.40;99.90
23207;DHT22;11773;52.570;13.052;2023-01-25T03:44:35;4.40;99.90
23207;DHT22;11773;52.570;13.052;2023-01-25T03:47:04;4.30;99.90
23207;DHT22;11773;52.570;13.052;2023-01-25T03:49:34;4.40;99.90
23207;DHT22;11773;52.570;13.052;2023-01-25T03:52:04;4.50;99.90
23207;DHT22;11773;52.570;13.052;2023-01-25T03:54:33;4.40;99.90
23207;DHT22;11773;52.570;13.052;2023-01-25T03:57:03;4.30;99.90
23207;DHT22;11773;52.570;13.052;2023-01-25T03:59:32;4.40;99.90
23207;DHT22;11773;52.570;13.052;2023-01-25T04:02:02;4.40;99.90
23207;DHT22;11773;52.570;13.052;2023-01-25T04:04:32;4.40;99.90
23207;DHT22;11773;52.570;13.052;2023-01-25T04:07:01;4.40;99.90
23207;DHT22;11773;52.570;13.052;2023-01-25T04:09:31;4.30;99.90
23207;DHT22;11773;52.570;13.052;2023-01-25T04:12:00;4.50;99.90
23207;DHT22;11773;52.570;13.052;2023-01-25T04:14:30;4.50;99.90
23207;DHT22;11773;52.570;13.052;2023-01-25T04:17:01;4.40;99.90
23207;DHT22;11773;52.570;13.052;2023-01-25T04:19:32;4.40;99.90
23207;DHT22;11773;52.570;13.052;2023-01-25T04:22:01;4.40;99.90
23207;DHT22;11773;52.570;13.052;2023-01-25T04:24:31;4.40;99.90
23207;DHT22;11773;52.570;13.052;2023-01-25T04:27:00;4.40;99.90
23207;DHT22;11773;52.570;13.052;2023-01-25T04:29:30;4.30;99.90
23207;DHT22;11773;52.570;13.052;2023-01-25T04:32:01;4.30;99.90
23207;DHT22;11773;52.570;13.052;2023-01-25T04:34:31;4.40;99.90
23207;DHT22;11773;52.570;13.052;2023-01-25T04:37:00;4.40;99.90
23207;DHT22;11773;52.570;13.052;2023-01-25T04:39:30;4.40;99.90
23207;DHT22;11773;52.570;13.052;2023-01-25T04:41:59;4.40;99.90
23207;DHT22;11773;52.570;13.052;2023-01-25T04:44:29;4.50;99.90
23207;DHT22;11773;52.570;13.052;2023-01-25T04:46:59;4.50;99.90
23207;DHT22;11773;52.570;13.052;2023-01-25T04:49:30;4.30;99.90
23207;DHT22;11773;52.570;13.052;2023-01-25T04:51:59;4.40;99.90
23207;DHT22;11773;52.570;13.052;2023-01-25T04:54:29;4.50;99.90
23207;DHT22;11773;52.570;13.052;2023-01-25T04:56:58;4.50;99.90
23207;DHT22;11773;52.570;13.052;2023-01-25T04:59:28;4.40;99.90
23207;DHT22;11773;52.570;13.052;2023-01-25T05:01:57;4.30;99.90
23207;DHT22;11773;52.570;13.052;2023-01-25T05:04:27;4.40;99.90
23207;DHT22;11773;52.570;13.052;2023-01-25T05:06:56;4.40;99.90
23207;DHT22;11773;52.570;13.052;2023-01-25T05:09:26;4.30;99.90
23207;DHT22;11773;52.570;13.052;2023-01-25T05:11:55;4.30;99.90
23207;DHT22;11773;52.570;13.052;2023-01-25T05:14:25;4.30;99.90
23207;DHT22;11773;52.570;13.052;2023-01-25T05:16:54;4.30;99.90
23207;DHT22;11773;52.570;13.052;2023-01-25T05:19:24;4.40;99.90
23207;DHT22;11773;52.570;13.052;2023-01-25T05:21:53;4.30;99.90
23207;DHT22;11773;52.570;13.052;2023-01-25T05:24:28;4.30;99.90
23207;DHT22;11773;52.570;13.052;2023-01-25T05:26:58;4.40;99.90
23207;DHT22;11773;52.570;13.052;2023-01-25T05:29:33;4.30;99.90
23207;DHT22;11773;52.570;13.052;2023-01-25T05:32:17;4.40;99.90
23207;DHT22;11773;52.570;13.052;2023-01-25T05:34:43;4.50;99.90
23207;DHT22;11773;52.570;13.052;2023-01-25T05:37:18;4.40;99.90
23207;DHT22;11773;52.570;13.052;2023-01-25T05:39:49;4.40;99.90
23207;DHT22;11773;52.570;13.052;2023-01-25T05:42:18;4.40;99.90
23207;DHT22;11773;52.570;13.052;2023-01-25T05:44:47;4.40;99.90
23207;DHT22;11773;52.570;13.052;2023-01-25T05:47:17;4.50;99.90
23207;DHT22;11773;52.570;13.052;2023-01-25T05:49:47;4.50;99.90
23207;DHT22;11773;52.570;13.052;2023-01-25T05:52:16;4.50;99.90
23207;DHT22;11773;52.570;13.052;2023-01-25T05:54:48;4.50;99.90
23207;DHT22;11773;52.570;13.052;2023-01-25T05:57:17;4.50;99.90
23207;DHT22;11773;52.570;13.052;2023-01-25T05:59:47;4.60;99.90
23207;DHT22;11773;52.570;13.052;2023-01-25T06:02:16;4.40;99.90
23207;DHT22;11773;52.570;13.052;2023-01-25T06:04:46;4.40;99.90
23207;DHT22;11773;52.570;13.052;2023-01-25T06:07:15;4.40;99.90
23207;DHT22;11773;52.570;13.052;2023-01-25T06:09:45;4.40;99.90
23207;DHT22;11773;52.570;13.052;2023-01-25T06:12:14;4.40;99.90
23207;DHT22;11773;52.570;13.052;2023-01-25T06:14:44;4.40;99.90
23207;DHT22;11773;52.570;13.052;2023-01-25T06:17:14;4.50;99.90
23207;DHT22;11773;52.570;13.052;2023-01-25T06:19:43;4.40;99.90
23207;DHT22;11773;52.570;13.052;2023-01-25T06:22:13;4.30;99.90
23207;DHT22;11773;52.570;13.052;2023-01-25T06:24:42;4.60;99.90
23207;DHT22;11773;52.570;13.052;2023-01-25T06:27:11;4.60;99.90
23207;DHT22;11773;52.570;13.052;2023-01-25T06:29:42;4.60;99.90
23207;DHT22;11773;52.570;13.052;2023-01-25T06:32:11;4.50;99.90
23207;DHT22;11773;52.570;13.052;2023-01-25T06:34:41;4.60;99.90
23207;DHT22;11773;52.570;13.052;2023-01-25T06:37:10;4.50;99.90
23207;DHT22;11773;52.570;13.052;2023-01-25T06:39:40;4.30;99.90
23207;DHT22;11773;52.570;13.052;2023-01-25T06:42:09;4.40;99.90
23207;DHT22;11773;52.570;13.052;2023-01-25T06:44:39;4.40;99.90
23207;DHT22;11773;52.570;13.052;2023-01-25T06:47:08;4.50;99.90
23207;DHT22;11773;52.570;13.052;2023-01-25T06:49:38;4.50;99.90
23207;DHT22;11773;52.570;13.052;2023-01-25T06:52:08;4.30;99.90
23207;DHT22;11773;52.570;13.052;2023-01-25T06:54:37;4.40;99.90
23207;DHT22;11773;52.570;13.052;2023-01-25T06:57:07;4.40;99.90
23207;DHT22;11773;52.570;13.052;2023-01-25T06:59:38;4.40;99.90
23207;DHT22;11773;52.570;13.052;2023-01-25T07:02:14;4.30;99.90
23207;DHT22;11773;52.570;13.052;2023-01-25T07:04:43;4.40;99.90
23207;DHT22;11773;52.570;13.052;2023-01-25T07:07:13;4.40;99.90
23207;DHT22;11773;52.570;13.052;2023-01-25T07:09:42;4.50;99.90
23207;DHT22;11773;52.570;13.052;2023-01-25T07:12:12;4.50;99.90
23207;DHT22;11773;52.570;13.052;2023-01-25T07:14:41;4.50;99.90
23207;DHT22;11773;52.570;13.052;2023-01-25T07:17:11;4.60;99.90
23207;DHT22;11773;52.570;13.052;2023-01-25T07:19:40;4.60;99.90
23207;DHT22;11773;52.570;13.052;2023-01-25T07:22:10;4.60;99.90
23207;DHT22;11773;52.570;13.052;2023-01-25T07:24:39;4.60;99.90
23207;DHT22;11773;52.570;13.052;2023-01-25T07:27:09;4.50;99.90
23207;DHT22;11773;52.570;13.052;2023-01-25T07:29:39;4.60;99.90
23207;DHT22;11773;52.570;13.052;2023-01-25T07:32:11;4.40;99.90
23207;DHT22;11773;52.570;13.052;2023-01-25T07:34:41;4.50;99.90
23207;DHT22;11773;52.570;13.052;2023-01-25T07:37:10;4.30;99.90
23207;DHT22;11773;52.570;13.052;2023-01-25T07:39:40;4.40;99.90
23207;DHT22;11773;52.570;13.052;2023-01-25T07:42:11;4.50;99.90
23207;DHT22;11773;52.570;13.052;2023-01-25T07:44:41;4.20;99.90
23207;DHT22;11773;52.570;13.052;2023-01-25T07:47:10;4.30;99.90
23207;DHT22;11773;52.570;13.052;2023-01-25T07:49:40;4.30;99.90
23207;DHT22;11773;52.570;13.052;2023-01-25T07:52:09;4.40;99.90
23207;DHT22;11773;52.570;13.052;2023-01-25T07:54:39;4.40;99.90
23207;DHT22;11773;52.570;13.052;2023-01-25T07:57:08;4.60;99.90
23207;DHT22;11773;52.570;13.052;2023-01-25T07:59:38;4.60;99.90
23207;DHT22;11773;52.570;13.052;2023-01-25T08:02:09;4.50;99.90
23207;DHT22;11773;52.570;13.052;2023-01-25T08:04:39;4.40;99.90
23207;DHT22;11773;52.570;13.052;2023-01-25T08:07:09;4.60;99.90
23207;DHT22;11773;52.570;13.052;2023-01-25T08:09:40;4.60;99.90
23207;DHT22;11773;52.570;13.052;2023-01-25T08:12:09;4.50;99.90
23207;DHT22;11773;52.570;13.052;2023-01-25T08:14:39;4.40;99.90
23207;DHT22;11773;52.570;13.052;2023-01-25T08:17:08;4.50;99.90
23207;DHT22;11773;52.570;13.052;2023-01-25T08:19:38;4.30;99.90
23207;DHT22;11773;52.570;13.052;2023-01-25T08:22:08;4.20;99.90
23207;DHT22;11773;52.570;13.052;2023-01-25T08:24:39;4.30;99.90
23207;DHT22;11773;52.570;13.052;2023-01-25T08:27:08;4.40;99.90
23207;DHT22;11773;52.570;13.052;2023-01-25T08:29:38;4.50;99.90
23207;DHT22;11773;52.570;13.052;2023-01-25T08:32:07;4.50;99.90
23207;DHT22;11773;52.570;13.052;2023-01-25T08:34:37;4.40;99.90
23207;DHT22;11773;52.570;13.052;2023-01-25T08:37:07;4.50;99.90
23207;DHT22;11773;52.570;13.052;2023-01-25T08:39:37;4.50;99.90
23207;DHT22;11773;52.570;13.052;2023-01-25T08:42:06;4.30;99.90
23207;DHT22;11773;52.570;13.052;2023-01-25T08:44:36;4.50;99.90
23207;DHT22;11773;52.570;13.052;2023-01-25T08:47:05;4.60;99.90
23207;DHT22;11773;52.570;13.052;2023-01-25T08:49:35;4.50;99.90
23207;DHT22;11773;52.570;13.052;2023-01-25T08:52:05;4.60;99.90
23207;DHT22;11773;52.570;13.052;2023-01-25T08:54:34;4.50;99.90
23207;DHT22;11773;52.570;13.052;2023-01-25T08:57:04;4.60;99.90
23207;DHT22;11773;52.570;13.052;2023-01-25T08:59:34;4.60;99.90
23207;DHT22;11773;52.570;13.052;2023-01-25T09:02:03;4.50;99.90
23207;DHT22;11773;52.570;13.052;2023-01-25T09:04:33;4.70;99.90
23207;DHT22;11773;52.570;13.052;2023-01-25T09:07:02;4.70;99.90
23207;DHT22;11773;52.570;13.052;2023-01-25T09:09:32;4.50;99.90
23207;DHT22;11773;52.570;13.052;2023-01-25T09:12:02;4.60;99.90
23207;DHT22;11773;52.570;13.052;2023-01-25T09:14:31;4.60;99.90
23207;DHT22;11773;52.570;13.052;2023-01-25T09:17:01;4.60;99.90
23207;DHT22;11773;52.570;13.052;2023-01-25T09:19:30;4.70;99.90
23207;DHT22;11773;52.570;13.052;2023-01-25T09:22:00;4.60;99.90
23207;DHT22;11773;52.570;13.052;2023-01-25T09:24:30;4.60;99.90
23207;DHT22;11773;52.570;13.052;2023-01-25T09:27:02;4.40;99.90
23207;DHT22;11773;52.570;13.052;2023-01-25T09:29:32;4.60;99.90
23207;DHT22;11773;52.570;13.052;2023-01-25T09:32:03;4.40;99.90
23207;DHT22;11773;52.570;13.052;2023-01-25T09:34:33;4.40;99.90
23207;DHT22;11773;52.570;13.052;2023-01-25T09:37:03;4.50;99.90
23207;DHT22;11773;52.570;13.052;2023-01-25T09:39:34;4.60;99.90
23207;DHT22;11773;52.570;13.052;2023-01-25T09:42:24;4.70;99.90
23207;DHT22;11773;52.570;13.052;2023-01-25T09:48:08;4.50;99.90
23207;DHT22;11773;52.570;13.052;2023-01-25T09:50:57;4.60;99.90
23207;DHT22;11773;52.570;13.052;2023-01-25T09:53:41;4.60;99.90
23207;DHT22;11773;52.570;13.052;2023-01-25T09:56:21;4.60;99.90
23207;DHT22;11773;52.570;13.052;2023-01-25T09:58:59;4.60;99.90
23207;DHT22;11773;52.570;13.052;2023-01-25T10:01:45;4.40;99.90
23207;DHT22;11773;52.570;13.052;2023-01-25T10:04:27;4.40;99.90
23207;DHT22;11773;52.570;13.052;2023-01-25T10:07:37;4.50;99.90
23207;DHT22;11773;52.570;13.052;2023-01-25T10:10:12;4.50;99.90
23207;DHT22;11773;52.570;13.052;2023-01-25T10:12:43;4.60;99.90
23207;DHT22;11773;52.570;13.052;2023-01-25T10:15:42;4.50;99.90
23207;DHT22;11773;52.570;13.052;2023-01-25T10:18:14;4.50;99.90
23207;DHT22;11773;52.570;13.052;2023-01-25T10:20:54;4.50;99.90
23207;DHT22;11773;52.570;13.052;2023-01-25T10:26:35;4.50;99.90
23207;DHT22;11773;52.570;13.052;2023-01-25T10:29:20;4.50;99.90
23207;DHT22;11773;52.570;13.052;2023-01-25T10:31:52;4.40;99.90
23207;DHT22;11773;52.570;13.052;2023-01-25T10:34:35;4.20;99.90
23207;DHT22;11773;52.570;13.052;2023-01-25T10:37:19;4.20;99.90
23207;DHT22;11773;52.570;13.052;2023-01-25T10:43:02;4.30;99.90
23207;DHT22;11773;52.570;13.052;2023-01-25T10:45:33;4.40;99.90
23207;DHT22;11773;52.570;13.052;2023-01-25T10:50:52;4.20;99.90
23207;DHT22;11773;52.570;13.052;2023-01-25T10:53:29;4.30;99.90
23207;DHT22;11773;52.570;13.052;2023-01-25T10:56:23;4.30;99.90
23207;DHT22;11773;52.570;13.052;2023-01-25T10:59:13;4.40;99.90
23207;DHT22;11773;52.570;13.052;2023-01-25T11:01:42;4.40;99.90
23207;DHT22;11773;52.570;13.052;2023-01-25T11:04:33;4.40;99.90
23207;DHT22;11773;52.570;13.052;2023-01-25T11:07:03;4.60;99.90
23207;DHT22;11773;52.570;13.052;2023-01-25T11:09:41;4.40;99.90
23207;DHT22;11773;52.570;13.052;2023-01-25T11:12:18;4.40;99.90
23207;DHT22;11773;52.570;13.052;2023-01-25T11:14:49;4.40;99.90
23207;DHT22;11773;52.570;13.052;2023-01-25T11:17:27;4.40;99.90
23207;DHT22;11773;52.570;13.052;2023-01-25T11:20:19;4.30;99.90
23207;DHT22;11773;52.570;13.052;2023-01-25T11:22:51;4.30;99.90
23207;DHT22;11773;52.570;13.052;2023-01-25T11:25:30;4.40;99.90
23207;DHT22;11773;52.570;13.052;2023-01-25T11:28:22;4.40;99.90
23207;DHT22;11773;52.570;13.052;2023-01-25T11:30:52;4.40;99.90
23207;DHT22;11773;52.570;13.052;2023-01-25T11:33:24;4.50;99.90
23207;DHT22;11773;52.570;13.052;2023-01-25T11:36:14;4.50;99.90
23207;DHT22;11773;52.570;13.052;2023-01-25T11:39:04;4.40;99.90
23207;DHT22;11773;52.570;13.052;2023-01-25T11:41:42;4.50;99.90
23207;DHT22;11773;52.570;13.052;2023-01-25T11:44:39;4.40;99.90
23207;DHT22;11773;52.570;13.052;2023-01-25T11:47:37;4.30;99.90
23207;DHT22;11773;52.570;13.052;2023-01-25T11:50:14;4.20;99.90
23207;DHT22;11773;52.570;13.052;2023-01-25T11:53:32;4.40;99.90
23207;DHT22;11773;52.570;13.052;2023-01-25T11:56:42;4.50;99.90
23207;DHT22;11773;52.570;13.052;2023-01-25T12:06:11;4.50;99.90
23207;DHT22;11773;52.570;13.052;2023-01-25T12:11:42;4.50;99.90
23207;DHT22;11773;52.570;13.052;2023-01-25T12:14:31;4.60;99.90
23207;DHT22;11773;52.570;13.052;2023-01-25T12:17:24;4.50;99.90
23207;DHT22;11773;52.570;13.052;2023-01-25T12:23:44;4.50;99.90
23207;DHT22;11773;52.570;13.052;2023-01-25T12:26:52;4.50;99.90
23207;DHT22;11773;52.570;13.052;2023-01-25T12:29:36;4.50;99.90
23207;DHT22;11773;52.570;13.052;2023-01-25T12:32:23;4.50;99.90
23207;DHT22;11773;52.570;13.052;2023-01-25T12:35:22;4.50;99.90
23207;DHT22;11773;52.570;13.052;2023-01-25T12:38:08;4.40;99.90
23207;DHT22;11773;52.570;13.052;2023-01-25T12:40:51;4.40;99.90
23207;DHT22;11773;52.570;13.052;2023-01-25T12:43:25;4.50;99.90
23207;DHT22;11773;52.570;13.052;2023-01-25T12:45:53;4.50;99.90
23207;DHT22;11773;52.570;13.052;2023-01-25T12:48:29;4.60;99.90
23207;DHT22;11773;52.570;13.052;2023-01-25T12:51:03;4.60;99.90
23207;DHT22;11773;52.570;13.052;2023-01-25T12:53:45;4.50;99.90
23207;DHT22;11773;52.570;13.052;2023-01-25T12:56:27;4.50;99.90
23207;DHT22;11773;52.570;13.052;2023-01-25T12:59:00;4.40;99.90
23207;DHT22;11773;52.570;13.052;2023-01-25T13:01:34;4.20;99.90
23207;DHT22;11773;52.570;13.052;2023-01-25T13:07:28;4.10;99.90
23207;DHT22;11773;52.570;13.052;2023-01-25T13:10:35;4.20;99.90
23207;DHT22;11773;52.570;13.052;2023-01-25T13:13:26;4.30;99.90
23207;DHT22;11773;52.570;13.052;2023-01-25T13:15:57;4.30;99.90
23207;DHT22;11773;52.570;13.052;2023-01-25T13:21:08;4.40;99.90
23207;DHT22;11773;52.570;13.052;2023-01-25T13:23:42;4.40;99.90
23207;DHT22;11773;52.570;13.052;2023-01-25T13:28:57;4.00;99.90
23207;DHT22;11773;52.570;13.052;2023-01-25T13:31:44;4.20;99.90
23207;DHT22;11773;52.570;13.052;2023-01-25T13:37:22;4.50;99.90
23207;DHT22;11773;52.570;13.052;2023-01-25T13:40:49;4.10;99.90
23207;DHT22;11773;52.570;13.052;2023-01-25T13:45:48;4.10;99.90
23207;DHT22;11773;52.570;13.052;2023-01-25T13:48:22;4.00;99.90
23207;DHT22;11773;52.570;13.052;2023-01-25T13:51:07;4.00;99.90
23207;DHT22;11773;52.570;13.052;2023-01-25T13:53:34;4.00;99.90
23207;DHT22;11773;52.570;13.052;2023-01-25T13:56:21;4.00;99.90
23207;DHT22;11773;52.570;13.052;2023-01-25T13:58:54;4.00;99.90
23207;DHT22;11773;52.570;13.052;2023-01-25T14:01:24;4.10;99.90
23207;DHT22;11773;52.570;13.052;2023-01-25T14:03:55;4.00;99.90
23207;DHT22;11773;52.570;13.052;2023-01-25T14:06:33;4.10;99.90
23207;DHT22;11773;52.570;13.052;2023-01-25T14:09:16;4.20;99.90
23207;DHT22;11773;52.570;13.052;2023-01-25T14:11:52;4.10;99.90
23207;DHT22;11773;52.570;13.052;2023-01-25T14:14:28;3.90;99.90
23207;DHT22;11773;52.570;13.052;2023-01-25T14:17:21;3.90;99.90
23207;DHT22;11773;52.570;13.052;2023-01-25T14:19:55;4.00;99.90
23207;DHT22;11773;52.570;13.052;2023-01-25T14:22:26;3.90;99.90
23207;DHT22;11773;52.570;13.052;2023-01-25T14:25:02;4.00;99.90
23207;DHT22;11773;52.570;13.052;2023-01-25T14:27:36;4.10;99.90
23207;DHT22;11773;52.570;13.052;2023-01-25T14:30:27;4.20;99.90
23207;DHT22;11773;52.570;13.052;2023-01-25T14:33:00;4.10;99.90
23207;DHT22;11773;52.570;13.052;2023-01-25T14:35:40;4.20;99.90
23207;DHT22;11773;52.570;13.052;2023-01-25T14:41:15;4.20;99.90
23207;DHT22;11773;52.570;13.052;2023-01-25T14:43:50;3.80;99.90
23207;DHT22;11773;52.570;13.052;2023-01-25T14:46:24;4.00;99.90
23207;DHT22;11773;52.570;13.052;2023-01-25T14:49:15;3.80;99.90
23207;DHT22;11773;52.570;13.052;2023-01-25T14:52:04;4.00;99.90
23207;DHT22;11773;52.570;13.052;2023-01-25T14:54:43;3.90;99.90
23207;DHT22;11773;52.570;13.052;2023-01-25T14:57:40;4.00;99.90
23207;DHT22;11773;52.570;13.052;2023-01-25T15:00:21;3.80;99.90
23207;DHT22;11773;52.570;13.052;2023-01-25T15:02:58;4.00;99.90
23207;DHT22;11773;52.570;13.052;2023-01-25T15:05:33;3.90;99.90
23207;DHT22;11773;52.570;13.052;2023-01-25T15:10:53;4.00;99.90
23207;DHT22;11773;52.570;13.052;2023-01-25T15:13:28;4.10;99.90
23207;DHT22;11773;52.570;13.052;2023-01-25T15:15:59;4.10;99.90
23207;DHT22;11773;52.570;13.052;2023-01-25T15:18:50;4.20;99.90
23207;DHT22;11773;52.570;13.052;2023-01-25T15:21:31;4.10;99.90
23207;DHT22;11773;52.570;13.052;2023-01-25T15:24:02;4.00;99.90
23207;DHT22;11773;52.570;13.052;2023-01-25T15:26:35;4.10;99.90
23207;DHT22;11773;52.570;13.052;2023-01-25T15:29:19;4.10;99.90
23207;DHT22;11773;52.570;13.052;2023-01-25T15:31:51;4.10;99.90
23207;DHT22;11773;52.570;13.052;2023-01-25T15:34:27;4.00;99.90
23207;DHT22;11773;52.570;13.052;2023-01-25T15:36:59;3.90;99.90
23207;DHT22;11773;52.570;13.052;2023-01-25T15:39:28;4.10;99.90
23207;DHT22;11773;52.570;13.052;2023-01-25T15:41:59;4.10;99.90
23207;DHT22;11773;52.570;13.052;2023-01-25T15:44:28;4.20;99.90
23207;DHT22;11773;52.570;13.052;2023-01-25T15:46:58;4.20;99.90
23207;DHT22;11773;52.570;13.052;2023-01-25T15:49:29;4.20;99.90
23207;DHT22;11773;52.570;13.052;2023-01-25T15:51:59;3.90;99.90
23207;DHT22;11773;52.570;13.052;2023-01-25T15:54:28;4.00;99.90
23207;DHT22;11773;52.570;13.052;2023-01-25T15:56:58;4.10;99.90
23207;DHT22;11773;52.570;13.052;2023-01-25T15:59:28;4.10;99.90
23207;DHT22;11773;52.570;13.052;2023-01-25T16:01:57;4.10;99.90
23207;DHT22;11773;52.570;13.052;2023-01-25T16:04:27;4.10;99.90
23207;DHT22;11773;52.570;13.052;2023-01-25T16:06:56;4.20;99.90
23207;DHT22;11773;52.570;13.052;2023-01-25T16:09:29;4.30;99.90
23207;DHT22;11773;52.570;13.052;2023-01-25T16:12:00;4.30;99.90
23207;DHT22;11773;52.570;13.052;2023-01-25T16:14:30;4.00;99.90
23207;DHT22;11773;52.570;13.052;2023-01-25T16:17:01;3.80;99.90
23207;DHT22;11773;52.570;13.052;2023-01-25T16:19:32;3.90;99.90
23207;DHT22;11773;52.570;13.052;2023-01-25T16:22:02;4.00;99.90
23207;DHT22;11773;52.570;13.052;2023-01-25T16:24:31;4.00;99.90
23207;DHT22;11773;52.570;13.052;2023-01-25T16:27:01;4.10;99.90
23207;DHT22;11773;52.570;13.052;2023-01-25T16:29:30;4.20;99.90
23207;DHT22;11773;52.570;13.052;2023-01-25T16:32:00;4.20;99.90
23207;DHT22;11773;52.570;13.052;2023-01-25T16:34:29;4.20;99.90
23207;DHT22;11773;52.570;13.052;2023-01-25T16:36:59;4.20;99.90
23207;DHT22;11773;52.570;13.052;2023-01-25T16:39:29;4.20;99.90
23207;DHT22;11773;52.570;13.052;2023-01-25T16:41:58;4.20;99.90
23207;DHT22;11773;52.570;13.052;2023-01-25T16:44:28;4.20;99.90
23207;DHT22;11773;52.570;13.052;2023-01-25T16:46:57;4.20;99.90
23207;DHT22;11773;52.570;13.052;2023-01-25T16:49:27;4.20;99.90
23207;DHT22;11773;52.570;13.052;2023-01-25T16:51:58;4.10;99.90
23207;DHT22;11773;52.570;13.052;2023-01-25T16:54:29;4.10;99.90
23207;DHT22;11773;52.570;13.052;2023-01-25T16:56:59;4.10;99.90
23207;DHT22;11773;52.570;13.052;2023-01-25T16:59:30;3.90;99.90